Time;durP1;ratioP1;P1;durP2;ratioP2;P2;SDS_P1;SDS_P2;PMS_P1;PMS_P2;Temp;Humidity;BMP_temperature;BMP_pressure;BME280_temperature;BME280_humidity;BME280_pressure;Samples;Min_cycle;Max_cycle;Signal;HPM_P1;HPM_P2
2021/08/19 00:01:35;;;;;;;1.55;1.20;;;16.30;92.90;;;;;;4989191;28;20359;-68
2021/08/19 00:04:00;;;;;;;2.72;1.00;;;16.30;92.90;;;;;;4989792;28;20030;-70
2021/08/19 00:06:26;;;;;;;1.05;0.98;;;16.30;92.90;;;;;;4990794;28;20038;-68
2021/08/19 00:08:52;;;;;;;1.40;1.30;;;16.30;92.90;;;;;;4991782;28;20026;-69
2021/08/19 00:11:17;;;;;;;1.23;1.13;;;16.30;92.90;;;;;;4991914;28;20030;-65
2021/08/19 00:13:43;;;;;;;1.30;1.20;;;16.30;93.00;;;;;;4991743;28;20041;-69
2021/08/19 00:16:08;;;;;;;1.20;1.10;;;16.30;92.90;;;;;;4990822;28;20096;-68
2021/08/19 00:18:36;;;;;;;1.00;0.90;;;16.20;92.90;;;;;;4992147;28;20027;-68
2021/08/19 00:21:02;;;;;;;1.10;1.00;;;16.20;92.90;;;;;;4992065;28;20026;-69
2021/08/19 00:23:27;;;;;;;2.58;1.10;;;16.20;92.90;;;;;;4991931;28;20680;-68
2021/08/19 00:25:53;;;;;;;1.40;1.27;;;16.20;93.00;;;;;;4990636;28;20037;-68
2021/08/19 00:28:18;;;;;;;1.63;1.50;;;16.20;92.90;;;;;;4991698;28;20409;-69
2021/08/19 00:30:44;;;;;;;1.30;1.20;;;16.20;92.90;;;;;;4991214;28;20033;-68
2021/08/19 00:33:10;;;;;;;1.60;1.50;;;16.20;92.90;;;;;;4992029;28;20106;-69
2021/08/19 00:35:36;;;;;;;1.25;1.15;;;16.20;92.90;;;;;;4990549;28;20109;-65
2021/08/19 00:38:02;;;;;;;1.50;1.40;;;16.20;92.90;;;;;;4991384;28;20085;-69
2021/08/19 00:40:29;;;;;;;1.30;1.20;;;16.20;93.00;;;;;;4991199;28;20175;-68
2021/08/19 00:42:55;;;;;;;2.00;1.40;;;16.20;93.00;;;;;;4992171;28;20053;-67
2021/08/19 00:45:21;;;;;;;1.70;1.30;;;16.20;93.00;;;;;;4990092;28;20085;-69
2021/08/19 00:47:47;;;;;;;1.23;1.13;;;16.20;93.00;;;;;;4990564;28;20053;-69
2021/08/19 00:50:13;;;;;;;2.15;1.20;;;16.20;93.00;;;;;;4991796;28;20038;-69
2021/08/19 00:52:41;;;;;;;3.53;1.50;;;16.20;93.00;;;;;;4991286;28;20030;-68
2021/08/19 00:55:08;;;;;;;4.50;1.17;;;16.20;93.00;;;;;;4986586;28;20126;-66
2021/08/19 00:57:37;;;;;;;1.30;1.20;;;16.20;93.00;;;;;;4973899;28;20432;-69
2021/08/19 01:00:03;;;;;;;1.58;1.45;;;16.20;93.00;;;;;;4990749;28;20030;-66
2021/08/19 01:02:29;;;;;;;1.63;1.38;;;16.10;93.00;;;;;;4985614;28;20026;-68
2021/08/19 01:04:55;;;;;;;3.05;1.40;;;16.10;93.00;;;;;;4988948;28;20372;-69
2021/08/19 01:07:20;;;;;;;1.60;1.50;;;16.10;93.00;;;;;;4991049;28;20121;-69
2021/08/19 01:09:46;;;;;;;2.47;1.42;;;16.10;93.00;;;;;;4974034;28;20079;-69
2021/08/19 01:12:13;;;;;;;1.92;1.60;;;16.10;93.10;;;;;;4987835;28;20053;-69
2021/08/19 01:14:42;;;;;;;1.40;1.30;;;16.10;93.10;;;;;;4990016;28;20031;-69
2021/08/19 01:17:17;;;;;;;2.72;1.40;;;16.10;93.10;;;;;;4991214;28;20040;-69
2021/08/19 01:19:46;;;;;;;1.20;1.20;;;16.10;93.20;;;;;;4990612;28;20022;-69
2021/08/19 01:22:11;;;;;;;1.60;1.50;;;16.10;93.20;;;;;;4991632;28;20124;-68
2021/08/19 01:24:37;;;;;;;3.00;1.60;;;16.10;93.20;;;;;;4990480;28;20505;-65
2021/08/19 01:27:03;;;;;;;1.50;1.40;;;16.10;93.20;;;;;;4991830;28;20033;-69
2021/08/19 01:29:29;;;;;;;1.88;1.65;;;16.10;93.10;;;;;;4991377;28;20497;-70
2021/08/19 01:32:03;;;;;;;1.80;1.70;;;16.10;93.10;;;;;;4990642;28;20038;-69
2021/08/19 01:34:30;;;;;;;1.63;1.52;;;16.10;93.20;;;;;;4972356;28;20032;-68
2021/08/19 01:36:56;;;;;;;2.22;1.58;;;16.00;93.10;;;;;;4990053;28;20277;-69
2021/08/19 01:39:22;;;;;;;1.88;1.48;;;16.10;93.20;;;;;;5008942;23;20054;-67
2021/08/19 01:41:48;;;;;;;1.85;1.70;;;16.00;93.20;;;;;;4989840;28;20026;-67
2021/08/19 01:44:14;;;;;;;2.67;1.80;;;16.10;93.20;;;;;;4990173;28;20027;-67
2021/08/19 01:46:40;;;;;;;1.67;1.58;;;16.10;93.20;;;;;;4989715;28;20030;-67
2021/08/19 01:49:05;;;;;;;1.98;1.63;;;16.00;93.20;;;;;;4990349;28;20484;-67
2021/08/19 01:51:33;;;;;;;1.60;1.50;;;16.10;93.20;;;;;;4990184;28;20038;-67
2021/08/19 01:53:59;;;;;;;3.03;1.73;;;16.00;93.20;;;;;;4990849;28;20026;-67
2021/08/19 01:56:25;;;;;;;1.80;1.55;;;16.10;93.20;;;;;;4990789;28;20042;-67
2021/08/19 01:58:53;;;;;;;3.53;1.30;;;16.00;93.20;;;;;;4994426;28;20397;-67
2021/08/19 02:01:20;;;;;;;1.70;1.60;;;16.00;93.20;;;;;;4994123;28;20053;-67
2021/08/19 02:03:45;;;;;;;1.60;1.50;;;16.00;93.20;;;;;;4990813;28;20442;-67
2021/08/19 02:06:11;;;;;;;2.20;1.73;;;15.90;93.20;;;;;;4993058;28;20109;-67
2021/08/19 02:08:37;;;;;;;1.80;1.65;;;15.90;93.30;;;;;;4994128;28;20036;-67
2021/08/19 02:11:03;;;;;;;2.65;1.90;;;16.00;93.30;;;;;;4989199;28;20050;-67
2021/08/19 02:13:28;;;;;;;2.05;1.70;;;16.00;93.30;;;;;;4993890;28;20033;-67
2021/08/19 02:15:54;;;;;;;1.80;1.70;;;16.00;93.30;;;;;;4992652;28;20022;-67
2021/08/19 02:18:19;;;;;;;2.40;1.65;;;16.00;93.30;;;;;;4994112;28;20025;-67
2021/08/19 02:20:45;;;;;;;2.38;1.70;;;15.90;93.30;;;;;;4993768;28;20202;-67
2021/08/19 02:23:11;;;;;;;2.08;1.60;;;15.90;93.30;;;;;;4994362;28;20038;-67
2021/08/19 02:25:36;;;;;;;1.67;1.58;;;15.90;93.30;;;;;;4993380;28;20421;-67
2021/08/19 02:28:02;;;;;;;1.52;1.40;;;15.90;93.30;;;;;;4993820;28;20042;-67
2021/08/19 02:30:27;;;;;;;4.05;1.75;;;15.90;93.40;;;;;;4994223;28;20037;-67
2021/08/19 02:32:56;;;;;;;1.88;1.50;;;15.90;93.40;;;;;;4993590;28;20081;-67
2021/08/19 02:35:26;;;;;;;3.08;1.90;;;15.90;93.40;;;;;;4992701;28;20556;-67
2021/08/19 02:37:53;;;;;;;2.28;1.75;;;15.90;93.40;;;;;;4993533;28;20044;-67
2021/08/19 02:40:20;;;;;;;2.72;1.88;;;15.90;93.40;;;;;;4991207;28;20077;-67
2021/08/19 02:42:45;;;;;;;2.25;1.60;;;15.90;93.40;;;;;;4993943;28;20050;-67
2021/08/19 02:45:11;;;;;;;1.60;1.50;;;15.90;93.50;;;;;;4992414;28;20073;-67
2021/08/19 02:47:37;;;;;;;1.83;1.73;;;15.90;93.50;;;;;;4993530;28;20026;-67
2021/08/19 02:50:03;;;;;;;2.00;1.67;;;15.80;93.50;;;;;;4994139;28;20038;-67
2021/08/19 02:52:29;;;;;;;3.13;2.33;;;15.80;93.50;;;;;;4993363;28;20034;-67
2021/08/19 02:54:54;;;;;;;1.85;1.75;;;15.90;93.50;;;;;;4992618;28;20785;-67
2021/08/19 02:57:20;;;;;;;3.22;1.73;;;15.80;93.50;;;;;;4993302;28;20038;-67
2021/08/19 02:59:45;;;;;;;2.17;1.98;;;15.80;93.50;;;;;;4993288;28;20037;-67
2021/08/19 03:02:11;;;;;;;2.17;2.08;;;15.80;93.60;;;;;;4993032;28;20050;-67
2021/08/19 03:04:37;;;;;;;2.38;1.80;;;15.80;93.60;;;;;;4991771;28;20034;-67
2021/08/19 03:07:02;;;;;;;2.38;1.85;;;15.80;93.60;;;;;;4992274;28;20028;-67
2021/08/19 03:09:28;;;;;;;2.38;1.92;;;15.80;93.60;;;;;;4992953;28;20026;-67
2021/08/19 03:11:54;;;;;;;2.38;2.05;;;15.80;93.70;;;;;;4990909;28;20042;-67
2021/08/19 03:14:19;;;;;;;1.95;1.85;;;15.80;93.70;;;;;;4993158;28;20034;-67
2021/08/19 03:16:45;;;;;;;3.35;2.03;;;15.90;93.70;;;;;;4973678;28;20030;-67
2021/08/19 03:19:10;;;;;;;2.45;2.22;;;15.90;93.70;;;;;;4992887;28;20034;-67
2021/08/19 03:21:37;;;;;;;2.85;2.03;;;15.90;93.70;;;;;;4992563;28;20049;-67
2021/08/19 03:24:04;;;;;;;3.97;2.30;;;15.80;93.70;;;;;;4992775;28;20029;-67
2021/08/19 03:26:31;;;;;;;2.30;2.10;;;15.90;93.70;;;;;;4991996;28;20038;-67
2021/08/19 03:28:57;;;;;;;2.72;2.00;;;15.80;93.70;;;;;;4992747;28;20054;-67
2021/08/19 03:31:25;;;;;;;2.95;2.10;;;15.80;93.70;;;;;;4992937;28;20104;-67
2021/08/19 03:33:50;;;;;;;2.50;2.30;;;15.80;93.70;;;;;;4992396;28;20022;-67
2021/08/19 03:36:16;;;;;;;2.40;2.20;;;15.80;93.80;;;;;;4991910;28;20069;-67
2021/08/19 03:38:43;;;;;;;7.97;2.33;;;15.80;93.80;;;;;;4991841;28;20036;-67
2021/08/19 03:41:09;;;;;;;3.58;2.13;;;15.80;93.80;;;;;;4992372;28;20029;-67
2021/08/19 03:43:34;;;;;;;2.85;2.55;;;15.80;93.80;;;;;;4992626;28;20022;-67
2021/08/19 03:46:00;;;;;;;3.40;2.40;;;15.80;93.80;;;;;;4991521;28;20026;-67
2021/08/19 03:48:25;;;;;;;2.40;2.20;;;15.80;93.80;;;;;;4992402;28;20096;-67
2021/08/19 03:50:51;;;;;;;2.88;2.40;;;15.80;93.90;;;;;;4992401;28;20023;-67
2021/08/19 03:53:17;;;;;;;2.47;2.28;;;15.80;93.90;;;;;;4992957;28;20034;-67
2021/08/19 03:55:44;;;;;;;2.50;2.30;;;15.80;93.80;;;;;;4991171;28;20030;-67
2021/08/19 03:58:09;;;;;;;2.95;2.40;;;15.80;93.90;;;;;;4992353;28;20041;-67
2021/08/19 04:00:35;;;;;;;3.08;1.98;;;15.80;93.90;;;;;;4991941;28;20110;-67
2021/08/19 04:03:00;;;;;;;2.47;2.28;;;15.80;93.90;;;;;;4992767;28;20027;-67
2021/08/19 04:05:26;;;;;;;2.67;2.22;;;15.80;94.00;;;;;;4991228;28;20062;-67
2021/08/19 04:07:52;;;;;;;2.20;2.10;;;15.80;93.90;;;;;;4991081;28;20112;-67
2021/08/19 04:10:18;;;;;;;2.80;2.20;;;15.80;94.00;;;;;;4992193;28;20035;-67
2021/08/19 04:12:44;;;;;;;4.05;2.40;;;15.80;94.00;;;;;;4991961;28;20127;-67
2021/08/19 04:15:10;;;;;;;2.63;2.35;;;15.80;94.00;;;;;;4990893;28;20137;-67
2021/08/19 04:17:37;;;;;;;3.00;2.20;;;15.80;94.00;;;;;;4991714;28;20030;-67
2021/08/19 04:20:05;;;;;;;2.80;2.35;;;15.70;93.90;;;;;;4991116;28;20113;-67
2021/08/19 04:22:31;;;;;;;2.50;2.30;;;15.70;93.90;;;;;;4991811;28;20026;-67
2021/08/19 04:24:57;;;;;;;2.60;2.40;;;15.70;93.90;;;;;;4990748;28;20121;-67
2021/08/19 04:27:22;;;;;;;2.85;2.50;;;15.70;94.00;;;;;;4991979;28;20030;-67
2021/08/19 04:29:48;;;;;;;4.50;2.75;;;15.70;94.00;;;;;;4991694;28;20506;-67
2021/08/19 04:32:14;;;;;;;2.75;2.55;;;15.70;94.00;;;;;;4991983;28;20391;-67
2021/08/19 04:34:40;;;;;;;2.47;2.20;;;15.70;94.00;;;;;;4990314;28;20037;-67
2021/08/19 04:37:06;;;;;;;4.82;2.58;;;15.70;94.00;;;;;;4991154;28;20030;-67
2021/08/19 04:39:31;;;;;;;4.43;2.67;;;15.70;94.00;;;;;;4990621;28;20038;-67
2021/08/19 04:41:57;;;;;;;2.83;2.55;;;15.70;94.00;;;;;;4991904;28;20026;-68
2021/08/19 04:44:23;;;;;;;3.47;2.67;;;15.70;94.00;;;;;;4991163;28;20018;-67
2021/08/19 04:46:48;;;;;;;3.05;2.75;;;15.70;94.00;;;;;;4990396;28;20041;-67
2021/08/19 04:49:14;;;;;;;4.53;3.20;;;15.70;94.00;;;;;;4991763;28;20034;-67
2021/08/19 04:51:41;;;;;;;4.00;3.08;;;15.70;94.00;;;;;;4990940;28;20023;-67
2021/08/19 04:54:07;;;;;;;4.38;2.83;;;15.70;94.10;;;;;;4990551;28;20019;-67
2021/08/19 04:56:37;;;;;;;3.22;2.80;;;15.70;94.10;;;;;;4990709;28;20030;-67
2021/08/19 04:59:07;;;;;;;3.08;2.78;;;15.70;94.10;;;;;;4991139;28;20109;-67
2021/08/19 05:01:33;;;;;;;2.95;2.70;;;15.70;94.10;;;;;;4991137;28;20022;-67
2021/08/19 05:03:59;;;;;;;4.57;3.70;;;15.80;94.20;;;;;;4991198;28;20113;-67
2021/08/19 05:06:28;;;;;;;3.90;2.90;;;15.70;94.20;;;;;;4990082;28;20023;-67
2021/08/19 05:08:55;;;;;;;4.30;2.65;;;15.80;94.20;;;;;;4989991;28;20033;-67
2021/08/19 05:11:22;;;;;;;3.45;2.95;;;15.80;94.20;;;;;;4989938;28;20113;-67
2021/08/19 05:13:48;;;;;;;2.95;2.58;;;15.80;94.20;;;;;;4967119;28;20479;-67
2021/08/19 05:16:14;;;;;;;5.22;3.00;;;15.80;94.20;;;;;;4990431;28;20038;-70
2021/08/19 05:18:40;;;;;;;3.00;2.80;;;15.80;94.20;;;;;;4991125;28;20108;-68
2021/08/19 05:21:06;;;;;;;4.90;2.92;;;15.80;94.20;;;;;;4991629;28;20475;-67
2021/08/19 05:23:33;;;;;;;4.78;2.70;;;15.90;94.20;;;;;;4991323;28;20046;-68
2021/08/19 05:25:58;;;;;;;4.63;3.45;;;15.90;94.20;;;;;;4970811;28;20026;-67
2021/08/19 05:28:24;;;;;;;3.95;3.20;;;15.90;94.20;;;;;;4991155;28;20117;-67
2021/08/19 05:30:50;;;;;;;3.42;2.60;;;15.90;94.20;;;;;;4991074;28;20048;-69
2021/08/19 05:33:15;;;;;;;3.88;2.83;;;15.90;94.20;;;;;;4991525;28;20034;-66
2021/08/19 05:35:41;;;;;;;3.55;2.70;;;16.00;94.20;;;;;;4989594;28;20081;-68
2021/08/19 05:38:06;;;;;;;2.60;2.40;;;16.00;94.20;;;;;;4973066;28;20097;-67
2021/08/19 05:40:32;;;;;;;3.38;2.38;;;16.00;94.20;;;;;;4989981;28;20110;-70
2021/08/19 05:42:57;;;;;;;4.68;3.35;;;16.00;94.20;;;;;;4973957;28;20031;-67
2021/08/19 05:45:23;;;;;;;3.15;2.85;;;16.10;94.20;;;;;;4990100;28;20030;-67
2021/08/19 05:47:48;;;;;;;5.65;2.40;;;16.10;94.10;;;;;;4991184;28;20072;-68
2021/08/19 05:50:14;;;;;;;3.20;2.30;;;16.10;94.10;;;;;;4991154;28;20030;-70
2021/08/19 05:52:40;;;;;;;3.45;2.90;;;16.10;94.00;;;;;;4990984;28;20041;-68
2021/08/19 05:55:06;;;;;;;6.00;2.67;;;16.20;94.00;;;;;;4989683;28;20030;-68
2021/08/19 05:57:32;;;;;;;4.97;2.50;;;16.20;94.00;;;;;;4989320;28;20037;-68
2021/08/19 05:59:57;;;;;;;4.80;2.67;;;16.20;93.90;;;;;;4990350;28;20030;-67
2021/08/19 06:02:23;;;;;;;2.88;2.60;;;16.20;93.90;;;;;;4990139;28;20034;-68
2021/08/19 06:04:49;;;;;;;4.35;3.08;;;16.30;93.90;;;;;;4989904;28;20332;-68
2021/08/19 06:07:14;;;;;;;3.10;2.83;;;16.30;93.90;;;;;;4984962;28;20033;-68
2021/08/19 06:09:40;;;;;;;3.72;2.60;;;16.30;93.90;;;;;;4992265;28;20486;-69
2021/08/19 06:12:06;;;;;;;5.30;2.85;;;16.30;93.90;;;;;;4997683;28;20033;-68
2021/08/19 06:14:32;;;;;;;2.97;2.65;;;16.30;93.70;;;;;;4992969;28;20034;-68
2021/08/19 06:16:57;;;;;;;5.47;3.08;;;16.40;93.70;;;;;;4990193;28;20038;-67
2021/08/19 06:19:23;;;;;;;3.53;3.05;;;16.40;93.80;;;;;;5001705;28;20034;-68
2021/08/19 06:21:49;;;;;;;3.15;2.85;;;16.40;93.70;;;;;;4996180;28;20041;-69
2021/08/19 06:24:15;;;;;;;4.00;3.20;;;16.40;93.60;;;;;;4971880;28;20027;-68
2021/08/19 06:26:41;;;;;;;3.47;3.17;;;16.40;93.60;;;;;;4988622;28;20034;-66
2021/08/19 06:29:06;;;;;;;4.18;3.30;;;16.40;93.70;;;;;;4989977;28;20041;-69
2021/08/19 06:31:32;;;;;;;3.67;3.25;;;16.50;93.80;;;;;;4990204;28;20026;-68
2021/08/19 06:33:58;;;;;;;3.15;2.85;;;16.40;93.60;;;;;;4990535;28;20038;-67
2021/08/19 06:36:23;;;;;;;4.03;3.17;;;16.40;93.60;;;;;;4989650;28;20018;-68
2021/08/19 06:38:52;;;;;;;5.15;3.60;;;16.50;93.60;;;;;;4990938;28;20117;-68
2021/08/19 06:41:19;;;;;;;4.05;3.65;;;16.50;93.60;;;;;;4991496;28;20023;-69
2021/08/19 06:43:45;;;;;;;4.88;3.90;;;16.50;93.60;;;;;;4994540;28;20025;-68
2021/08/19 06:46:10;;;;;;;4.65;3.70;;;16.50;93.70;;;;;;4993834;28;20457;-68
2021/08/19 06:48:36;;;;;;;6.28;4.30;;;16.50;93.70;;;;;;4994418;28;20026;-68
2021/08/19 06:51:02;;;;;;;4.60;4.07;;;16.50;93.60;;;;;;4994108;28;20480;-66
2021/08/19 06:53:27;;;;;;;6.35;4.50;;;16.50;93.70;;;;;;4993857;28;20122;-68
2021/08/19 06:55:53;;;;;;;7.25;4.70;;;16.50;93.70;;;;;;4996381;28;20550;-67
2021/08/19 06:58:19;;;;;;;4.68;4.25;;;16.40;93.70;;;;;;4997169;28;20114;-68
2021/08/19 07:00:44;;;;;;;5.47;4.65;;;16.40;93.80;;;;;;4998018;28;20018;-66
2021/08/19 07:03:14;;;;;;;6.55;4.65;;;16.40;93.80;;;;;;4996912;28;20026;-65
2021/08/19 07:05:41;;;;;;;5.20;4.50;;;16.40;94.00;;;;;;4996240;28;20026;-65
2021/08/19 07:08:07;;;;;;;12.98;5.50;;;16.40;94.00;;;;;;4990374;28;20030;-66
2021/08/19 07:10:32;;;;;;;5.78;4.20;;;16.40;94.00;;;;;;4995324;28;20109;-64
2021/08/19 07:12:58;;;;;;;5.90;3.85;;;16.40;94.00;;;;;;4994009;28;20038;-67
2021/08/19 07:15:23;;;;;;;8.57;4.60;;;16.40;94.00;;;;;;4994829;28;20034;-67
2021/08/19 07:17:49;;;;;;;6.97;4.45;;;16.50;94.10;;;;;;4994255;28;20030;-66
2021/08/19 07:20:15;;;;;;;5.65;4.68;;;16.50;94.20;;;;;;4994448;28;20022;-66
2021/08/19 07:22:44;;;;;;;4.78;4.05;;;16.50;94.00;;;;;;4976068;28;20022;-67
2021/08/19 07:25:12;;;;;;;5.40;4.40;;;16.50;94.00;;;;;;4993701;28;20026;-68
2021/08/19 07:27:37;;;;;;;5.55;3.97;;;16.50;94.10;;;;;;4995302;28;20030;-67
2021/08/19 07:30:04;;;;;;;4.28;3.88;;;16.50;94.20;;;;;;4993370;28;20034;-66
2021/08/19 07:32:29;;;;;;;4.95;4.28;;;16.50;94.20;;;;;;4995587;28;20018;-66
2021/08/19 07:34:55;;;;;;;4.45;3.70;;;16.60;94.30;;;;;;4994023;28;20072;-65
2021/08/19 07:37:20;;;;;;;4.47;4.07;;;16.50;94.20;;;;;;4993575;28;20031;-67
2021/08/19 07:42:14;;;;;;;5.13;3.67;;;16.60;94.20;;;;;;4971680;28;20046;-70
2021/08/19 07:44:39;;;;;;;4.47;3.78;;;16.60;94.00;;;;;;4971743;28;20089;-69
2021/08/19 07:47:05;;;;;;;3.53;3.20;;;16.70;94.00;;;;;;4972264;28;20030;-70
2021/08/19 07:49:31;;;;;;;6.28;4.40;;;16.70;94.10;;;;;;4961199;28;20035;-70
2021/08/19 07:51:57;;;;;;;3.90;3.50;;;16.70;94.10;;;;;;4960145;28;20033;-71
2021/08/19 07:54:22;;;;;;;3.70;3.38;;;16.70;94.20;;;;;;4977832;28;20038;-70
2021/08/19 07:56:48;;;;;;;4.05;3.60;;;16.70;94.20;;;;;;4972763;28;20102;-69
2021/08/19 07:59:14;;;;;;;4.07;3.67;;;16.70;94.10;;;;;;4973972;28;20023;-68
2021/08/19 08:01:39;;;;;;;3.75;3.42;;;16.70;94.20;;;;;;4969351;28;20042;-71
2021/08/19 08:04:08;;;;;;;6.18;3.88;;;16.80;94.20;;;;;;4973724;28;20487;-71
2021/08/19 08:06:33;;;;;;;4.00;3.60;;;16.80;94.20;;;;;;4971980;28;20030;-69
2021/08/19 08:08:59;;;;;;;4.82;3.60;;;16.80;94.20;;;;;;4972828;28;20038;-70
2021/08/19 08:11:25;;;;;;;4.13;3.70;;;16.80;94.30;;;;;;4973572;28;20026;-70
2021/08/19 08:13:50;;;;;;;4.22;3.83;;;16.90;94.50;;;;;;4973521;28;20041;-70
2021/08/19 08:16:16;;;;;;;4.88;3.75;;;16.90;94.10;;;;;;4971913;28;20034;-70
2021/08/19 08:18:41;;;;;;;4.20;3.22;;;16.90;94.10;;;;;;4963947;28;20026;-67
2021/08/19 08:21:09;;;;;;;7.43;3.28;;;16.90;94.00;;;;;;4973099;28;20443;-70
2021/08/19 08:23:36;;;;;;;3.88;3.47;;;16.90;94.00;;;;;;4973093;28;20019;-69
2021/08/19 08:26:02;;;;;;;3.75;3.45;;;16.90;94.00;;;;;;4969653;28;20057;-68
2021/08/19 08:28:30;;;;;;;4.45;3.13;;;16.90;94.00;;;;;;4969029;28;20046;-71
2021/08/19 08:31:01;;;;;;;11.77;8.25;;;17.00;94.10;;;;;;4973896;28;20030;-71
2021/08/19 08:33:28;;;;;;;6.07;3.30;;;17.00;94.10;;;;;;4955712;28;20031;-69
2021/08/19 08:35:53;;;;;;;3.00;2.78;;;17.10;94.40;;;;;;4973245;28;20030;-71
2021/08/19 08:38:21;;;;;;;2.83;2.63;;;17.20;94.20;;;;;;4954705;28;20475;-69
2021/08/19 08:40:49;;;;;;;2.97;2.67;;;17.60;94.10;;;;;;4973526;28;20514;-67
2021/08/19 08:43:18;;;;;;;2.40;2.20;;;17.50;93.90;;;;;;4952445;28;20054;-71
2021/08/19 08:45:46;;;;;;;4.03;3.58;;;17.60;93.90;;;;;;4971076;28;20483;-70
2021/08/19 08:48:17;;;;;;;3.28;1.92;;;17.80;93.60;;;;;;4972646;28;20529;-71
2021/08/19 08:50:46;;;;;;;2.38;1.90;;;17.90;93.40;;;;;;4975388;28;20027;-67
2021/08/19 08:53:13;;;;;;;4.00;1.80;;;18.00;93.30;;;;;;4973676;28;20058;-71
2021/08/19 08:55:39;;;;;;;1.85;1.70;;;18.20;93.20;;;;;;4955494;28;20118;-71
2021/08/19 08:58:07;;;;;;;2.28;2.00;;;18.30;93.10;;;;;;4975347;28;20027;-71
2021/08/19 09:00:33;;;;;;;2.72;2.38;;;18.40;92.90;;;;;;4973188;28;20483;-71
2021/08/19 09:02:59;;;;;;;2.05;1.70;;;18.40;92.80;;;;;;4972242;28;20041;-70
2021/08/19 09:05:27;;;;;;;3.13;1.73;;;18.40;92.60;;;;;;4965752;28;20428;-69
2021/08/19 09:07:54;;;;;;;1.98;1.52;;;18.30;92.70;;;;;;4972328;28;20419;-71
2021/08/19 09:10:22;;;;;;;2.08;1.73;;;18.30;92.70;;;;;;4971276;28;20028;-70
2021/08/19 09:12:48;;;;;;;2.75;1.75;;;18.30;92.60;;;;;;4972157;28;20115;-65
2021/08/19 09:15:18;;;;;;;2.17;1.80;;;18.30;92.40;;;;;;4971543;28;20045;-68
2021/08/19 09:17:53;;;;;;;2.15;1.75;;;18.20;92.30;;;;;;4972933;28;20102;-70
2021/08/19 09:20:20;;;;;;;2.20;2.00;;;18.20;92.20;;;;;;4972719;28;20026;-70
2021/08/19 09:22:54;;;;;;;1.58;1.42;;;18.20;92.30;;;;;;4963286;28;20030;-68
2021/08/19 09:25:31;;;;;;;1.90;1.80;;;18.20;92.30;;;;;;4955338;28;20109;-69
2021/08/19 09:28:20;;;;;;;2.83;1.58;;;18.30;92.20;;;;;;4972036;28;20030;-68
2021/08/19 09:30:53;;;;;;;2.13;1.63;;;18.30;92.10;;;;;;4970713;28;20562;-69
2021/08/19 09:33:22;;;;;;;1.60;1.38;;;18.30;92.10;;;;;;4969052;28;20038;-71
2021/08/19 09:35:48;;;;;;;1.42;1.33;;;18.20;92.10;;;;;;4969364;28;20035;-70
2021/08/19 09:38:17;;;;;;;2.05;1.10;;;18.20;92.10;;;;;;4971073;28;20035;-67
2021/08/19 09:41:18;;;;;;;4.43;1.30;;;18.20;91.90;;;;;;4970939;28;20030;-71
2021/08/19 09:43:43;;;;;;;2.00;1.90;;;18.30;92.10;;;;;;4965954;28;20566;-71
2021/08/19 09:46:11;;;;;;;1.30;1.17;;;18.20;91.80;;;;;;4970033;28;20085;-70
2021/08/19 09:48:36;;;;;;;2.53;1.33;;;18.20;91.80;;;;;;4970819;28;20134;-68
2021/08/19 09:51:22;;;;;;;1.90;1.38;;;18.10;91.80;;;;;;4971497;28;20033;-71
2021/08/19 09:53:58;;;;;;;3.25;1.70;;;18.20;91.90;;;;;;4970711;28;20034;-69
2021/08/19 09:56:36;;;;;;;3.25;1.42;;;18.40;92.10;;;;;;4970948;28;20030;-69
2021/08/19 09:59:18;;;;;;;3.92;1.27;;;18.90;91.90;;;;;;4970573;28;20423;-69
2021/08/19 10:01:47;;;;;;;5.97;1.42;;;19.20;91.90;;;;;;4971154;28;20035;-69
2021/08/19 10:04:13;;;;;;;1.52;1.30;;;19.30;91.30;;;;;;4971127;28;20643;-69
2021/08/19 10:06:39;;;;;;;1.20;1.10;;;19.30;91.00;;;;;;4970511;28;20046;-66
2021/08/19 10:09:05;;;;;;;2.40;1.25;;;19.30;90.80;;;;;;4970259;28;20035;-66
2021/08/19 10:11:32;;;;;;;1.00;1.00;;;19.30;90.60;;;;;;4970638;28;20097;-68
2021/08/19 10:13:59;;;;;;;1.88;1.20;;;19.40;90.60;;;;;;4970831;28;20491;-69
2021/08/19 10:16:25;;;;;;;0.85;0.85;;;19.40;90.70;;;;;;4969737;28;20030;-68
2021/08/19 10:18:52;;;;;;;1.13;1.13;;;19.50;90.50;;;;;;4974272;28;20023;-69
2021/08/19 10:21:19;;;;;;;1.10;1.10;;;19.60;90.50;;;;;;4975110;28;20376;-69
2021/08/19 10:23:47;;;;;;;2.13;1.20;;;19.60;90.10;;;;;;4973192;28;20035;-68
2021/08/19 10:26:19;;;;;;;1.10;1.00;;;19.70;89.60;;;;;;4949222;28;20452;-68
2021/08/19 10:28:51;;;;;;;1.15;1.10;;;19.60;89.00;;;;;;4969417;28;20058;-69
2021/08/19 10:31:35;;;;;;;1.38;1.20;;;19.50;89.10;;;;;;4972949;28;20039;-68
2021/08/19 10:34:00;;;;;;;1.27;0.88;;;19.50;88.90;;;;;;4961463;28;20031;-69
2021/08/19 10:36:29;;;;;;;1.23;1.10;;;19.40;89.10;;;;;;4971702;28;20034;-67
2021/08/19 10:39:16;;;;;;;1.58;1.48;;;19.40;89.10;;;;;;4974133;28;20085;-69
2021/08/19 10:41:42;;;;;;;1.35;1.25;;;19.30;89.20;;;;;;4967912;28;20065;-66
2021/08/19 10:44:11;;;;;;;1.30;1.20;;;19.20;89.30;;;;;;4974560;28;20031;-70
2021/08/19 10:46:44;;;;;;;1.42;1.20;;;19.10;89.20;;;;;;4976103;28;20038;-68
2021/08/19 10:49:29;;;;;;;2.25;1.13;;;19.00;89.10;;;;;;4978592;28;20113;-69
2021/08/19 10:51:55;;;;;;;1.02;1.02;;;19.00;89.40;;;;;;4979289;28;20038;-69
2021/08/19 10:55:08;;;;;;;1.00;1.00;;;18.90;89.60;;;;;;4979049;28;20459;-67
2021/08/19 10:57:34;;;;;;;1.17;1.05;;;18.90;89.70;;;;;;4953585;28;20129;-68
2021/08/19 11:00:05;;;;;;;2.13;0.88;;;18.90;89.90;;;;;;4979714;28;20473;-68
2021/08/19 11:02:54;;;;;;;1.17;1.10;;;18.80;89.80;;;;;;4979283;28;20030;-67
2021/08/19 11:05:26;;;;;;;1.08;0.90;;;18.80;89.70;;;;;;4976655;28;20062;-67
2021/08/19 11:07:55;;;;;;;1.60;1.10;;;18.90;89.90;;;;;;4958940;29;20042;-68
2021/08/19 11:10:28;;;;;;;1.05;1.02;;;18.90;90.00;;;;;;4976230;28;20289;-65
2021/08/19 11:13:05;;;;;;;1.73;0.93;;;18.90;89.70;;;;;;4972960;28;20447;-68
2021/08/19 11:15:31;;;;;;;1.25;1.10;;;18.90;89.60;;;;;;4976569;28;20098;-70
2021/08/19 11:17:59;;;;;;;1.13;0.90;;;18.90;89.50;;;;;;4967049;28;20038;-67
2021/08/19 11:20:29;;;;;;;1.42;1.13;;;19.00;89.50;;;;;;4962403;28;20334;-69
2021/08/19 11:23:07;;;;;;;1.65;1.02;;;19.00;89.50;;;;;;4956776;28;20041;-68
2021/08/19 11:25:35;;;;;;;1.35;1.20;;;19.10;89.40;;;;;;4974473;28;20050;-65
2021/08/19 11:28:12;;;;;;;3.08;0.90;;;19.10;89.10;;;;;;4978718;28;20426;-69
2021/08/19 11:30:47;;;;;;;1.17;1.08;;;19.20;89.10;;;;;;4978964;28;20030;-69
2021/08/19 11:33:15;;;;;;;3.38;1.13;;;19.20;89.10;;;;;;4979125;28;20117;-68
2021/08/19 11:35:43;;;;;;;1.55;1.20;;;19.20;88.90;;;;;;4978257;28;20027;-69
2021/08/19 11:38:11;;;;;;;1.42;1.33;;;19.20;88.60;;;;;;4978951;28;20054;-69
2021/08/19 11:40:38;;;;;;;2.15;1.30;;;19.10;88.70;;;;;;4972011;28;20030;-69
2021/08/19 11:43:27;;;;;;;1.80;1.15;;;19.10;88.70;;;;;;4960251;28;20030;-69
2021/08/19 11:46:04;;;;;;;1.83;1.00;;;19.10;88.90;;;;;;4976465;28;20057;-68
2021/08/19 11:48:30;;;;;;;1.40;1.25;;;19.10;89.20;;;;;;4961482;28;20034;-68
2021/08/19 11:50:59;;;;;;;2.30;1.30;;;19.10;89.00;;;;;;4978575;28;20091;-67
2021/08/19 11:53:25;;;;;;;6.05;1.58;;;19.20;89.20;;;;;;4977795;28;20057;-69
2021/08/19 11:55:52;;;;;;;13.52;1.75;;;19.20;88.90;;;;;;4975718;28;20034;-68
2021/08/19 11:58:26;;;;;;;1.77;1.25;;;19.20;88.70;;;;;;4977795;28;20376;-65
2021/08/19 12:01:02;;;;;;;1.48;1.38;;;19.30;88.40;;;;;;4977574;28;20023;-69
2021/08/19 12:03:28;;;;;;;1.50;1.25;;;19.30;88.10;;;;;;4977640;28;20023;-70
2021/08/19 12:06:07;;;;;;;2.03;1.10;;;19.30;88.10;;;;;;4977628;28;20038;-68
2021/08/19 12:08:34;;;;;;;1.33;1.10;;;19.30;88.00;;;;;;4977464;28;20526;-65
2021/08/19 12:11:02;;;;;;;2.42;1.30;;;19.30;87.90;;;;;;4978009;28;20070;-69
2021/08/19 12:13:28;;;;;;;1.85;1.20;;;19.30;87.90;;;;;;4976720;28;20038;-69
2021/08/19 12:15:55;;;;;;;7.28;1.95;;;19.40;88.10;;;;;;4976534;28;20058;-69
2021/08/19 12:18:22;;;;;;;2.70;2.00;;;19.40;88.00;;;;;;4976943;28;20039;-68
2021/08/19 12:21:12;;;;;;;1.98;1.80;;;19.40;88.20;;;;;;4977966;28;20027;-68
2021/08/19 12:23:38;;;;;;;2.80;1.20;;;19.50;88.10;;;;;;4962733;28;20066;-68
2021/08/19 12:26:16;;;;;;;1.65;1.52;;;19.50;88.00;;;;;;4976334;28;20097;-67
2021/08/19 12:28:56;;;;;;;1.58;1.48;;;19.50;88.10;;;;;;4977613;28;20490;-69
2021/08/19 12:31:22;;;;;;;2.15;1.70;;;19.60;88.10;;;;;;4977719;28;20042;-71
2021/08/19 12:34:01;;;;;;;1.67;1.20;;;19.60;88.00;;;;;;4961337;28;20141;-68
2021/08/19 12:36:31;;;;;;;4.65;1.48;;;19.60;87.70;;;;;;4956195;28;20699;-69
2021/08/19 12:39:25;;;;;;;3.08;1.52;;;19.60;87.60;;;;;;4977530;28;20689;-71
2021/08/19 12:42:08;;;;;;;2.00;1.50;;;19.60;87.40;;;;;;4971510;28;20479;-68
2021/08/19 12:44:34;;;;;;;1.90;1.30;;;19.60;87.60;;;;;;4959674;28;20038;-70
2021/08/19 12:47:00;;;;;;;1.42;1.35;;;19.50;87.50;;;;;;4977073;28;20038;-68
2021/08/19 12:49:27;;;;;;;2.05;1.38;;;19.50;87.50;;;;;;4977044;28;20509;-68
2021/08/19 12:52:24;;;;;;;2.15;1.50;;;19.50;87.50;;;;;;4977081;28;20054;-68